createdAt,value
2022-08-25T00:00:43.837Z,10.50
2022-08-25T00:05:47.794Z,12.40
2022-08-25T00:11:00.213Z,11.00
2022-08-25T00:16:06.686Z,12.00
2022-08-25T00:21:09.819Z,10.00
2022-08-25T00:26:13.923Z,7.50
2022-08-25T00:31:20.556Z,10.80
2022-08-25T00:36:23.429Z,10.90
2022-08-25T00:41:26.870Z,13.90
2022-08-25T00:46:33.100Z,10.50
2022-08-25T00:51:45.033Z,9.40
2022-08-25T00:56:48.837Z,10.30
2022-08-25T01:01:54.101Z,8.40
2022-08-25T01:06:59.441Z,9.90
2022-08-25T01:12:03.149Z,10.60
2022-08-25T01:17:06.221Z,10.50
2022-08-25T01:22:10.756Z,8.00
2022-08-25T01:27:13.918Z,10.00
2022-08-25T01:32:16.783Z,7.20
2022-08-25T01:37:20.797Z,10.80
2022-08-25T01:42:46.915Z,9.00
2022-08-25T01:47:49.806Z,10.60
2022-08-25T01:53:00.782Z,9.80
2022-08-25T01:58:03.878Z,9.80
2022-08-25T02:03:08.490Z,11.10
2022-08-25T02:08:23.451Z,8.60
2022-08-25T02:13:31.161Z,9.90
2022-08-25T02:18:34.718Z,9.60
2022-08-25T02:23:38.077Z,8.00
2022-08-25T02:28:41.256Z,10.20
2022-08-25T02:33:44.505Z,10.90
2022-08-25T02:38:47.482Z,7.70
2022-08-25T02:43:51.430Z,8.90
2022-08-25T02:48:54.335Z,10.40
2022-08-25T02:53:59.516Z,8.60
2022-08-25T02:59:03.027Z,10.90
2022-08-25T03:04:07.341Z,11.40
2022-08-25T03:09:10.349Z,8.10
2022-08-25T03:14:13.460Z,9.90
2022-08-25T03:19:16.858Z,8.40
2022-08-25T03:24:19.696Z,9.10
2022-08-25T03:29:32.644Z,11.40
2022-08-25T03:34:35.540Z,11.20
2022-08-25T03:39:38.348Z,8.10
2022-08-25T03:44:41.196Z,10.90
2022-08-25T03:49:44.014Z,11.70
2022-08-25T03:54:46.824Z,8.70
2022-08-25T03:59:49.638Z,10.40
2022-08-25T04:04:52.612Z,11.50
2022-08-25T04:15:01.380Z,11.20
2022-08-25T04:20:05.704Z,9.40
2022-08-25T04:25:09.137Z,10.30
2022-08-25T04:30:12.758Z,10.40
2022-08-25T04:35:16.926Z,8.90
2022-08-25T04:40:20.576Z,7.40
2022-08-25T04:45:31.994Z,10.80
2022-08-25T04:50:39.123Z,11.90
2022-08-25T04:55:48.538Z,10.10
2022-08-25T05:00:51.317Z,10.70
2022-08-25T05:05:54.253Z,10.40
2022-08-25T05:10:57.583Z,10.90
2022-08-25T05:16:03.237Z,12.90
2022-08-25T05:21:14.019Z,21.10
2022-08-25T05:26:21.090Z,16.70
2022-08-25T05:31:26.207Z,15.30
2022-08-25T05:36:29.706Z,11.40
2022-08-25T05:41:33.602Z,9.10
2022-08-25T05:46:36.523Z,10.00
2022-08-25T05:51:39.393Z,13.40
2022-08-25T05:56:42.311Z,11.10
2022-08-25T06:02:03.760Z,16.60
2022-08-25T06:07:06.766Z,14.90
2022-08-25T06:12:09.748Z,14.50
2022-08-25T06:17:12.851Z,11.90
2022-08-25T06:22:15.871Z,10.20
2022-08-25T06:27:19.431Z,13.30
2022-08-25T06:32:22.370Z,11.30
2022-08-25T06:37:26.365Z,14.30
2022-08-25T06:42:29.220Z,12.30
2022-08-25T06:47:32.514Z,11.50
2022-08-25T06:52:35.809Z,11.40
2022-08-25T06:57:38.724Z,11.30
2022-08-25T07:02:42.566Z,11.10
2022-08-25T07:07:46.588Z,10.30
2022-08-25T07:12:49.774Z,9.50
2022-08-25T07:17:52.637Z,11.50
2022-08-25T07:22:55.522Z,11.10
2022-08-25T07:27:59.121Z,8.80
2022-08-25T07:33:05.908Z,9.50
2022-08-25T07:38:13.035Z,12.20
2022-08-25T07:43:22.582Z,8.20
2022-08-25T07:48:25.815Z,15.50
2022-08-25T07:53:28.650Z,9.40
2022-08-25T07:58:31.593Z,9.70
2022-08-25T08:03:50.099Z,9.40
2022-08-25T08:08:57.772Z,8.80
2022-08-25T08:14:03.587Z,8.50
2022-08-25T08:19:07.278Z,10.20
2022-08-25T08:24:31.214Z,11.90
2022-08-25T08:29:34.044Z,10.20
2022-08-25T08:34:38.217Z,10.80
2022-08-25T08:39:41.558Z,9.50
2022-08-25T08:44:58.092Z,11.50
2022-08-25T08:50:17.578Z,10.20
2022-08-25T08:55:32.715Z,11.20
2022-08-25T09:00:42.350Z,10.00
2022-08-25T09:05:59.277Z,12.50
2022-08-25T09:11:16.342Z,7.90
2022-08-25T09:28:00.293Z,10.80
2022-08-25T09:33:05.120Z,13.10
2022-08-25T09:38:11.177Z,11.50
2022-08-25T09:43:32.245Z,11.70
2022-08-25T09:48:55.972Z,12.00
2022-08-25T09:54:10.788Z,13.30
2022-08-25T09:59:35.034Z,10.90
2022-08-25T10:04:42.732Z,12.40
2022-08-25T10:09:57.191Z,12.70
2022-08-25T10:15:00.680Z,9.80
2022-08-25T10:20:20.460Z,10.50
2022-08-25T10:25:30.117Z,10.50
2022-08-25T10:30:52.281Z,13.20
2022-08-25T10:36:08.266Z,13.10
2022-08-25T10:41:36.231Z,15.10
2022-08-25T10:46:50.313Z,13.30
2022-08-25T10:52:03.437Z,16.10
2022-08-25T10:57:28.749Z,15.40
2022-08-25T11:02:59.700Z,15.30
2022-08-25T11:08:09.157Z,12.30
2022-08-25T11:13:39.131Z,14.40
2022-08-25T11:19:07.064Z,13.20
2022-08-25T11:24:31.274Z,14.00
2022-08-25T11:29:39.469Z,14.80
2022-08-25T11:34:43.539Z,10.30
2022-08-25T11:40:35.268Z,20.30
2022-08-25T11:46:06.159Z,16.20
2022-08-25T11:51:48.335Z,14.20
2022-08-25T11:57:19.916Z,14.90
2022-08-25T12:02:35.806Z,17.10
2022-08-25T12:08:08.252Z,13.90
2022-08-25T12:13:50.731Z,17.50
2022-08-25T12:18:54.684Z,17.90
2022-08-25T12:24:13.827Z,9.70
2022-08-25T12:30:05.068Z,13.20
2022-08-25T12:35:53.507Z,18.70
2022-08-25T12:41:14.896Z,15.50
2022-08-25T12:46:21.287Z,16.10
2022-08-25T12:52:07.546Z,12.60
2022-08-25T12:57:19.249Z,20.20
2022-08-25T13:02:51.615Z,23.00
2022-08-25T13:08:33.728Z,21.00
2022-08-25T13:14:19.937Z,13.80
2022-08-25T13:19:25.372Z,19.00
2022-08-25T13:24:30.632Z,14.70
2022-08-25T13:29:53.905Z,12.70
2022-08-25T13:35:17.647Z,20.30
2022-08-25T13:40:34.563Z,13.70
2022-08-25T13:45:43.751Z,18.00
2022-08-25T13:50:51.875Z,14.60
2022-08-25T13:56:00.934Z,15.90
2022-08-25T14:01:22.758Z,17.50
2022-08-25T14:06:37.699Z,17.20
2022-08-25T14:11:56.666Z,18.60
2022-08-25T14:17:21.874Z,16.90
2022-08-25T14:22:38.477Z,16.00
2022-08-25T14:33:09.927Z,11.60
2022-08-25T14:38:12.892Z,22.70
2022-08-25T14:43:16.846Z,16.00
2022-08-25T14:48:25.634Z,16.40
2022-08-25T14:53:28.972Z,15.60
2022-08-25T14:58:34.002Z,21.60
2022-08-25T15:03:42.727Z,18.80
2022-08-25T15:09:08.689Z,18.20
2022-08-25T15:14:15.715Z,18.70
2022-08-25T15:19:27.173Z,20.90
2022-08-25T15:24:33.896Z,19.60
2022-08-25T15:29:41.043Z,16.70
2022-08-25T15:34:45.129Z,12.00
2022-08-25T15:39:50.153Z,16.10
2022-08-25T15:44:53.806Z,22.90
2022-08-25T15:50:25.758Z,17.80
2022-08-25T15:55:29.347Z,19.10
2022-08-25T16:00:32.392Z,19.70
2022-08-25T16:05:41.353Z,22.30
2022-08-25T16:10:51.196Z,17.20
2022-08-25T16:15:55.220Z,17.00
2022-08-25T16:20:58.179Z,21.40
2022-08-25T16:26:05.131Z,21.70
2022-08-25T16:31:16.876Z,22.00
2022-08-25T16:36:26.979Z,17.30
2022-08-25T16:41:34.361Z,21.10
2022-08-25T16:46:40.795Z,19.50
2022-08-25T16:51:44.486Z,18.00
2022-08-25T16:56:54.763Z,20.40
2022-08-25T17:01:58.240Z,20.80
2022-08-25T17:07:01.722Z,22.60
2022-08-25T17:12:05.588Z,17.30
2022-08-25T17:17:08.778Z,17.80
2022-08-25T17:22:15.893Z,18.50
2022-08-25T17:27:21.563Z,21.90
2022-08-25T17:32:28.737Z,21.20
2022-08-25T17:37:33.994Z,18.70
2022-08-25T17:42:37.676Z,23.10
2022-08-25T17:47:40.629Z,20.80
2022-08-25T17:52:43.551Z,21.40
2022-08-25T17:57:48.244Z,18.30
2022-08-25T18:02:51.315Z,16.80
2022-08-25T18:07:56.573Z,19.10
2022-08-25T18:13:03.350Z,19.20
2022-08-25T18:18:07.195Z,18.40
2022-08-25T18:23:10.195Z,21.50
2022-08-25T18:28:13.197Z,17.30
2022-08-25T18:33:19.267Z,14.60
2022-08-25T18:38:40.998Z,17.40
2022-08-25T18:43:46.019Z,22.40
2022-08-25T18:48:48.927Z,23.40
2022-08-25T18:53:59.179Z,14.30
2022-08-25T18:59:04.824Z,18.70
2022-08-25T19:04:09.749Z,22.00
2022-08-25T19:09:12.619Z,21.40
2022-08-25T19:14:16.195Z,21.50
2022-08-25T19:19:21.276Z,17.00
2022-08-25T19:24:24.627Z,16.60
2022-08-25T19:29:30.446Z,15.90
2022-08-25T19:34:39.711Z,14.00
2022-08-25T19:39:52.962Z,18.70
2022-08-25T19:44:56.314Z,16.30
2022-08-25T19:49:59.444Z,22.10
2022-08-25T19:55:03.413Z,19.70
2022-08-25T20:00:12.090Z,20.50
2022-08-25T20:05:23.876Z,24.30
2022-08-25T20:10:31.851Z,18.10
2022-08-25T20:15:39.355Z,21.30
2022-08-25T20:20:43.044Z,16.50
2022-08-25T20:25:48.205Z,21.60
2022-08-25T20:30:53.198Z,22.80
2022-08-25T20:35:56.577Z,18.50
2022-08-25T20:41:01.697Z,21.90
2022-08-25T20:46:07.920Z,21.50
2022-08-25T20:51:11.902Z,19.20
2022-08-25T20:56:17.833Z,21.40
2022-08-25T21:01:37.850Z,22.20
2022-08-25T21:06:45.624Z,21.00
2022-08-25T21:11:50.409Z,21.30
2022-08-25T21:16:56.293Z,20.70
2022-08-25T21:22:00.497Z,20.60
2022-08-25T21:27:04.633Z,25.70
2022-08-25T21:32:07.672Z,25.80
2022-08-25T21:37:11.555Z,22.00
2022-08-25T21:42:14.444Z,22.50
2022-08-25T21:47:21.696Z,27.20
2022-08-25T21:57:29.442Z,25.40
2022-08-25T22:02:32.249Z,16.70
2022-08-25T22:07:39.159Z,19.60
2022-08-25T22:12:46.394Z,18.30
2022-08-25T22:17:49.636Z,27.70
2022-08-25T22:22:52.931Z,25.30
2022-08-25T22:27:57.220Z,21.90
2022-08-25T22:33:01.526Z,27.90
2022-08-25T22:38:06.329Z,23.80
2022-08-25T22:43:09.419Z,22.80
2022-08-25T22:48:14.835Z,19.60
2022-08-25T22:53:18.593Z,17.40
2022-08-25T22:58:21.826Z,15.90
2022-08-25T23:03:27.049Z,25.70
2022-08-25T23:08:39.110Z,19.60
2022-08-25T23:13:44.307Z,19.30
2022-08-25T23:18:47.157Z,23.00
2022-08-25T23:23:50.018Z,20.00
2022-08-25T23:28:53.620Z,23.90
2022-08-25T23:33:57.411Z,19.00
2022-08-25T23:39:00.698Z,21.80
2022-08-25T23:44:05.780Z,23.20
2022-08-25T23:49:09.412Z,24.30
2022-08-25T23:54:12.543Z,23.80
2022-08-25T23:59:15.508Z,20.50
